sensor_id;sensor_type;location;lat;lon;timestamp;P1;durP1;ratioP1;P2;durP2;ratioP2
10825;SDS011;5466;55.898;14.094;2023-12-22T00:00:13;6.97;;;2.80;;
10825;SDS011;5466;55.898;14.094;2023-12-22T00:02:14;3.53;;;2.23;;
10825;SDS011;5466;55.898;14.094;2023-12-22T00:04:14;9.73;;;2.60;;
10825;SDS011;5466;55.898;14.094;2023-12-22T00:06:15;7.13;;;3.00;;
10825;SDS011;5466;55.898;14.094;2023-12-22T00:08:16;6.40;;;2.50;;
10825;SDS011;5466;55.898;14.094;2023-12-22T00:10:16;9.97;;;2.93;;
10825;SDS011;5466;55.898;14.094;2023-12-22T00:12:17;6.80;;;2.67;;
10825;SDS011;5466;55.898;14.094;2023-12-22T00:14:18;6.67;;;3.23;;
10825;SDS011;5466;55.898;14.094;2023-12-22T00:16:18;8.67;;;2.57;;
10825;SDS011;5466;55.898;14.094;2023-12-22T00:18:19;7.73;;;2.70;;
10825;SDS011;5466;55.898;14.094;2023-12-22T00:20:19;6.83;;;2.40;;
10825;SDS011;5466;55.898;14.094;2023-12-22T00:22:20;7.93;;;2.57;;
10825;SDS011;5466;55.898;14.094;2023-12-22T00:24:21;9.80;;;3.00;;
10825;SDS011;5466;55.898;14.094;2023-12-22T00:26:21;6.43;;;2.80;;
10825;SDS011;5466;55.898;14.094;2023-12-22T00:28:22;6.97;;;2.53;;
10825;SDS011;5466;55.898;14.094;2023-12-22T00:30:22;4.53;;;2.07;;
10825;SDS011;5466;55.898;14.094;2023-12-22T00:32:24;7.10;;;2.50;;
10825;SDS011;5466;55.898;14.094;2023-12-22T00:34:25;4.43;;;2.40;;
10825;SDS011;5466;55.898;14.094;2023-12-22T00:36:25;6.47;;;2.40;;
10825;SDS011;5466;55.898;14.094;2023-12-22T00:38:26;7.47;;;2.93;;
10825;SDS011;5466;55.898;14.094;2023-12-22T00:40:26;7.00;;;2.70;;
10825;SDS011;5466;55.898;14.094;2023-12-22T00:42:27;6.20;;;2.40;;
10825;SDS011;5466;55.898;14.094;2023-12-22T00:44:28;5.10;;;2.27;;
10825;SDS011;5466;55.898;14.094;2023-12-22T00:46:29;6.60;;;2.13;;
10825;SDS011;5466;55.898;14.094;2023-12-22T00:48:30;5.47;;;1.90;;
10825;SDS011;5466;55.898;14.094;2023-12-22T00:50:30;9.47;;;2.40;;
10825;SDS011;5466;55.898;14.094;2023-12-22T00:52:31;4.37;;;2.07;;
10825;SDS011;5466;55.898;14.094;2023-12-22T00:54:32;6.20;;;2.63;;
10825;SDS011;5466;55.898;14.094;2023-12-22T00:56:32;8.40;;;2.53;;
10825;SDS011;5466;55.898;14.094;2023-12-22T00:58:33;5.83;;;2.40;;
10825;SDS011;5466;55.898;14.094;2023-12-22T01:00:34;5.80;;;2.30;;
10825;SDS011;5466;55.898;14.094;2023-12-22T01:02:34;7.70;;;2.67;;
10825;SDS011;5466;55.898;14.094;2023-12-22T01:04:35;9.03;;;2.60;;
10825;SDS011;5466;55.898;14.094;2023-12-22T01:06:38;6.00;;;2.37;;
10825;SDS011;5466;55.898;14.094;2023-12-22T01:08:39;6.57;;;2.77;;
10825;SDS011;5466;55.898;14.094;2023-12-22T01:10:40;3.73;;;2.10;;
10825;SDS011;5466;55.898;14.094;2023-12-22T01:12:40;6.60;;;2.47;;
10825;SDS011;5466;55.898;14.094;2023-12-22T01:14:41;7.37;;;2.83;;
10825;SDS011;5466;55.898;14.094;2023-12-22T01:16:45;5.33;;;2.60;;
10825;SDS011;5466;55.898;14.094;2023-12-22T01:18:45;5.90;;;2.00;;
10825;SDS011;5466;55.898;14.094;2023-12-22T01:20:46;9.03;;;2.70;;
10825;SDS011;5466;55.898;14.094;2023-12-22T01:22:46;8.93;;;2.70;;
10825;SDS011;5466;55.898;14.094;2023-12-22T01:24:47;10.83;;;3.03;;
10825;SDS011;5466;55.898;14.094;2023-12-22T01:26:48;9.30;;;2.73;;
10825;SDS011;5466;55.898;14.094;2023-12-22T01:28:49;7.27;;;2.60;;
10825;SDS011;5466;55.898;14.094;2023-12-22T01:30:49;10.30;;;3.07;;
10825;SDS011;5466;55.898;14.094;2023-12-22T01:32:50;10.30;;;2.77;;
10825;SDS011;5466;55.898;14.094;2023-12-22T01:34:50;7.43;;;3.40;;
10825;SDS011;5466;55.898;14.094;2023-12-22T01:36:51;9.90;;;3.07;;
10825;SDS011;5466;55.898;14.094;2023-12-22T01:38:52;5.73;;;2.30;;
10825;SDS011;5466;55.898;14.094;2023-12-22T01:40:52;12.23;;;3.53;;
10825;SDS011;5466;55.898;14.094;2023-12-22T01:42:53;13.47;;;3.40;;
10825;SDS011;5466;55.898;14.094;2023-12-22T01:44:53;7.23;;;3.37;;
10825;SDS011;5466;55.898;14.094;2023-12-22T01:46:54;19.53;;;3.73;;
10825;SDS011;5466;55.898;14.094;2023-12-22T01:48:55;6.77;;;2.43;;
10825;SDS011;5466;55.898;14.094;2023-12-22T01:50:56;8.00;;;3.13;;
10825;SDS011;5466;55.898;14.094;2023-12-22T01:52:58;9.23;;;2.90;;
10825;SDS011;5466;55.898;14.094;2023-12-22T01:54:59;8.77;;;3.07;;
10825;SDS011;5466;55.898;14.094;2023-12-22T01:57:01;9.47;;;3.43;;
10825;SDS011;5466;55.898;14.094;2023-12-22T01:59:02;6.13;;;2.63;;
10825;SDS011;5466;55.898;14.094;2023-12-22T02:01:03;7.70;;;2.70;;
10825;SDS011;5466;55.898;14.094;2023-12-22T02:03:04;9.80;;;3.40;;
10825;SDS011;5466;55.898;14.094;2023-12-22T02:05:05;9.40;;;3.50;;
10825;SDS011;5466;55.898;14.094;2023-12-22T02:07:09;5.30;;;2.87;;
10825;SDS011;5466;55.898;14.094;2023-12-22T02:09:10;10.80;;;2.93;;
10825;SDS011;5466;55.898;14.094;2023-12-22T02:11:11;12.30;;;4.17;;
10825;SDS011;5466;55.898;14.094;2023-12-22T02:13:12;5.17;;;2.63;;
10825;SDS011;5466;55.898;14.094;2023-12-22T02:15:12;12.43;;;2.80;;
10825;SDS011;5466;55.898;14.094;2023-12-22T02:18:02;11.13;;;2.90;;
10825;SDS011;5466;55.898;14.094;2023-12-22T02:19:53;8.00;;;3.30;;
10825;SDS011;5466;55.898;14.094;2023-12-22T02:21:59;5.00;;;2.30;;
10825;SDS011;5466;55.898;14.094;2023-12-22T02:24:09;10.77;;;3.30;;
10825;SDS011;5466;55.898;14.094;2023-12-22T02:26:12;11.17;;;2.40;;
10825;SDS011;5466;55.898;14.094;2023-12-22T02:28:27;7.33;;;2.23;;
10825;SDS011;5466;55.898;14.094;2023-12-22T02:30:39;4.43;;;2.00;;
10825;SDS011;5466;55.898;14.094;2023-12-22T02:32:56;2.93;;;2.13;;
10825;SDS011;5466;55.898;14.094;2023-12-22T02:35:05;3.50;;;2.20;;
10825;SDS011;5466;55.898;14.094;2023-12-22T02:37:09;7.27;;;2.30;;
10825;SDS011;5466;55.898;14.094;2023-12-22T02:39:11;7.63;;;2.63;;
10825;SDS011;5466;55.898;14.094;2023-12-22T02:41:12;8.10;;;2.43;;
10825;SDS011;5466;55.898;14.094;2023-12-22T02:43:14;5.43;;;2.10;;
10825;SDS011;5466;55.898;14.094;2023-12-22T02:45:15;5.97;;;2.33;;
10825;SDS011;5466;55.898;14.094;2023-12-22T02:47:17;6.97;;;2.63;;
10825;SDS011;5466;55.898;14.094;2023-12-22T02:49:18;7.17;;;2.40;;
10825;SDS011;5466;55.898;14.094;2023-12-22T02:51:19;10.60;;;2.50;;
10825;SDS011;5466;55.898;14.094;2023-12-22T02:53:19;5.53;;;2.33;;
10825;SDS011;5466;55.898;14.094;2023-12-22T02:55:20;5.70;;;2.60;;
10825;SDS011;5466;55.898;14.094;2023-12-22T02:57:20;9.93;;;2.23;;
10825;SDS011;5466;55.898;14.094;2023-12-22T02:59:21;6.23;;;2.10;;
10825;SDS011;5466;55.898;14.094;2023-12-22T03:01:22;4.73;;;2.03;;
10825;SDS011;5466;55.898;14.094;2023-12-22T03:03:22;14.77;;;2.60;;
10825;SDS011;5466;55.898;14.094;2023-12-22T03:05:23;8.47;;;2.60;;
10825;SDS011;5466;55.898;14.094;2023-12-22T03:07:23;8.20;;;2.47;;
10825;SDS011;5466;55.898;14.094;2023-12-22T03:09:24;8.03;;;2.40;;
10825;SDS011;5466;55.898;14.094;2023-12-22T03:11:25;15.97;;;3.40;;
10825;SDS011;5466;55.898;14.094;2023-12-22T03:13:25;9.67;;;2.50;;
10825;SDS011;5466;55.898;14.094;2023-12-22T03:15:26;7.50;;;2.80;;
10825;SDS011;5466;55.898;14.094;2023-12-22T03:17:26;9.43;;;2.00;;
10825;SDS011;5466;55.898;14.094;2023-12-22T03:19:27;4.73;;;2.13;;
10825;SDS011;5466;55.898;14.094;2023-12-22T03:21:28;6.50;;;2.57;;
10825;SDS011;5466;55.898;14.094;2023-12-22T03:23:28;5.70;;;2.27;;
10825;SDS011;5466;55.898;14.094;2023-12-22T03:25:29;10.80;;;2.80;;
10825;SDS011;5466;55.898;14.094;2023-12-22T03:27:29;8.63;;;2.40;;
10825;SDS011;5466;55.898;14.094;2023-12-22T03:29:30;12.77;;;2.97;;
10825;SDS011;5466;55.898;14.094;2023-12-22T03:31:31;11.23;;;3.30;;
10825;SDS011;5466;55.898;14.094;2023-12-22T03:33:32;8.20;;;2.63;;
10825;SDS011;5466;55.898;14.094;2023-12-22T03:35:32;4.17;;;2.20;;
10825;SDS011;5466;55.898;14.094;2023-12-22T03:37:33;7.03;;;2.33;;
10825;SDS011;5466;55.898;14.094;2023-12-22T03:39:33;5.37;;;2.23;;
10825;SDS011;5466;55.898;14.094;2023-12-22T03:41:34;4.10;;;2.20;;
10825;SDS011;5466;55.898;14.094;2023-12-22T03:43:34;4.63;;;1.80;;
10825;SDS011;5466;55.898;14.094;2023-12-22T03:45:35;5.37;;;1.90;;
10825;SDS011;5466;55.898;14.094;2023-12-22T03:47:36;6.50;;;1.97;;
10825;SDS011;5466;55.898;14.094;2023-12-22T03:49:36;7.30;;;1.80;;
10825;SDS011;5466;55.898;14.094;2023-12-22T03:51:37;5.20;;;2.23;;
10825;SDS011;5466;55.898;14.094;2023-12-22T03:53:37;10.17;;;2.40;;
10825;SDS011;5466;55.898;14.094;2023-12-22T03:55:38;5.97;;;2.20;;
10825;SDS011;5466;55.898;14.094;2023-12-22T03:57:39;6.80;;;2.13;;
10825;SDS011;5466;55.898;14.094;2023-12-22T03:59:39;1.50;;;1.40;;
10825;SDS011;5466;55.898;14.094;2023-12-22T04:01:40;7.20;;;2.17;;
10825;SDS011;5466;55.898;14.094;2023-12-22T04:03:40;2.47;;;2.13;;
10825;SDS011;5466;55.898;14.094;2023-12-22T04:05:41;1.60;;;1.50;;
10825;SDS011;5466;55.898;14.094;2023-12-22T04:07:42;5.37;;;2.70;;
10825;SDS011;5466;55.898;14.094;2023-12-22T04:09:42;3.37;;;1.97;;
10825;SDS011;5466;55.898;14.094;2023-12-22T04:11:43;2.90;;;1.70;;
10825;SDS011;5466;55.898;14.094;2023-12-22T04:13:43;7.23;;;2.03;;
10825;SDS011;5466;55.898;14.094;2023-12-22T04:15:44;7.63;;;2.20;;
10825;SDS011;5466;55.898;14.094;2023-12-22T04:17:45;8.87;;;2.20;;
10825;SDS011;5466;55.898;14.094;2023-12-22T04:19:45;7.33;;;2.27;;
10825;SDS011;5466;55.898;14.094;2023-12-22T04:21:46;5.10;;;1.70;;
10825;SDS011;5466;55.898;14.094;2023-12-22T04:23:46;5.03;;;1.67;;
10825;SDS011;5466;55.898;14.094;2023-12-22T04:25:49;5.17;;;2.23;;
10825;SDS011;5466;55.898;14.094;2023-12-22T04:27:50;9.33;;;2.53;;
10825;SDS011;5466;55.898;14.094;2023-12-22T04:29:51;6.87;;;1.70;;
10825;SDS011;5466;55.898;14.094;2023-12-22T04:31:52;4.43;;;1.77;;
10825;SDS011;5466;55.898;14.094;2023-12-22T04:33:52;3.87;;;1.93;;
10825;SDS011;5466;55.898;14.094;2023-12-22T04:35:53;2.83;;;1.30;;
10825;SDS011;5466;55.898;14.094;2023-12-22T04:37:54;3.03;;;1.67;;
10825;SDS011;5466;55.898;14.094;2023-12-22T04:39:54;1.80;;;1.23;;
10825;SDS011;5466;55.898;14.094;2023-12-22T04:41:55;5.70;;;1.30;;
10825;SDS011;5466;55.898;14.094;2023-12-22T04:43:55;5.27;;;1.77;;
10825;SDS011;5466;55.898;14.094;2023-12-22T04:45:56;2.33;;;1.40;;
10825;SDS011;5466;55.898;14.094;2023-12-22T04:47:57;3.17;;;1.40;;
10825;SDS011;5466;55.898;14.094;2023-12-22T04:49:57;3.13;;;1.40;;
10825;SDS011;5466;55.898;14.094;2023-12-22T04:51:58;3.83;;;1.70;;
10825;SDS011;5466;55.898;14.094;2023-12-22T04:53:58;3.03;;;1.33;;
10825;SDS011;5466;55.898;14.094;2023-12-22T04:55:59;1.13;;;1.10;;
10825;SDS011;5466;55.898;14.094;2023-12-22T04:58:00;4.67;;;1.67;;
10825;SDS011;5466;55.898;14.094;2023-12-22T05:00:00;3.57;;;1.73;;
10825;SDS011;5466;55.898;14.094;2023-12-22T05:02:01;6.17;;;1.77;;
10825;SDS011;5466;55.898;14.094;2023-12-22T05:04:02;1.97;;;1.70;;
10825;SDS011;5466;55.898;14.094;2023-12-22T05:06:02;2.80;;;1.60;;
10825;SDS011;5466;55.898;14.094;2023-12-22T05:08:04;4.80;;;1.83;;
10825;SDS011;5466;55.898;14.094;2023-12-22T05:10:05;5.83;;;1.90;;
10825;SDS011;5466;55.898;14.094;2023-12-22T05:12:06;8.73;;;2.23;;
10825;SDS011;5466;55.898;14.094;2023-12-22T05:14:07;5.97;;;1.80;;
10825;SDS011;5466;55.898;14.094;2023-12-22T05:16:09;4.20;;;2.07;;
10825;SDS011;5466;55.898;14.094;2023-12-22T05:18:09;4.17;;;2.50;;
10825;SDS011;5466;55.898;14.094;2023-12-22T05:20:10;1.50;;;1.40;;
10825;SDS011;5466;55.898;14.094;2023-12-22T05:22:11;3.17;;;1.87;;
10825;SDS011;5466;55.898;14.094;2023-12-22T05:24:12;2.90;;;2.20;;
10825;SDS011;5466;55.898;14.094;2023-12-22T05:26:16;3.53;;;1.73;;
10825;SDS011;5466;55.898;14.094;2023-12-22T05:28:20;2.40;;;1.87;;
10825;SDS011;5466;55.898;14.094;2023-12-22T05:30:21;4.03;;;1.90;;
10825;SDS011;5466;55.898;14.094;2023-12-22T05:32:21;2.17;;;1.57;;
10825;SDS011;5466;55.898;14.094;2023-12-22T05:34:22;3.67;;;1.80;;
10825;SDS011;5466;55.898;14.094;2023-12-22T05:36:22;3.90;;;1.90;;
10825;SDS011;5466;55.898;14.094;2023-12-22T05:38:25;2.47;;;1.67;;
10825;SDS011;5466;55.898;14.094;2023-12-22T05:40:25;4.13;;;1.80;;
10825;SDS011;5466;55.898;14.094;2023-12-22T05:42:26;2.50;;;1.80;;
10825;SDS011;5466;55.898;14.094;2023-12-22T05:44:26;2.57;;;1.70;;
10825;SDS011;5466;55.898;14.094;2023-12-22T05:46:30;1.97;;;1.77;;
10825;SDS011;5466;55.898;14.094;2023-12-22T05:48:30;3.00;;;1.87;;
10825;SDS011;5466;55.898;14.094;2023-12-22T05:50:31;2.50;;;1.70;;
10825;SDS011;5466;55.898;14.094;2023-12-22T05:52:31;1.87;;;1.73;;
10825;SDS011;5466;55.898;14.094;2023-12-22T05:54:32;2.57;;;2.07;;
10825;SDS011;5466;55.898;14.094;2023-12-22T05:56:33;5.73;;;3.13;;
10825;SDS011;5466;55.898;14.094;2023-12-22T05:58:34;3.80;;;2.20;;
10825;SDS011;5466;55.898;14.094;2023-12-22T06:00:36;2.70;;;2.30;;
10825;SDS011;5466;55.898;14.094;2023-12-22T06:02:37;4.13;;;2.27;;
10825;SDS011;5466;55.898;14.094;2023-12-22T06:04:38;1.93;;;1.70;;
10825;SDS011;5466;55.898;14.094;2023-12-22T06:06:40;1.93;;;1.73;;
10825;SDS011;5466;55.898;14.094;2023-12-22T06:08:40;3.00;;;2.47;;
10825;SDS011;5466;55.898;14.094;2023-12-22T06:10:41;2.30;;;1.97;;
10825;SDS011;5466;55.898;14.094;2023-12-22T06:12:42;3.77;;;1.53;;
10825;SDS011;5466;55.898;14.094;2023-12-22T06:14:42;3.13;;;2.37;;
10825;SDS011;5466;55.898;14.094;2023-12-22T06:16:43;2.50;;;1.93;;
10825;SDS011;5466;55.898;14.094;2023-12-22T06:18:43;1.77;;;1.67;;
10825;SDS011;5466;55.898;14.094;2023-12-22T06:20:44;2.40;;;2.20;;
10825;SDS011;5466;55.898;14.094;2023-12-22T06:22:45;1.90;;;1.70;;
10825;SDS011;5466;55.898;14.094;2023-12-22T06:24:45;2.80;;;2.07;;
10825;SDS011;5466;55.898;14.094;2023-12-22T06:26:46;3.23;;;1.70;;
10825;SDS011;5466;55.898;14.094;2023-12-22T06:28:47;2.53;;;2.20;;
10825;SDS011;5466;55.898;14.094;2023-12-22T06:30:48;4.23;;;2.50;;
10825;SDS011;5466;55.898;14.094;2023-12-22T06:32:48;2.43;;;2.17;;
10825;SDS011;5466;55.898;14.094;2023-12-22T06:34:49;2.17;;;1.97;;
10825;SDS011;5466;55.898;14.094;2023-12-22T06:36:49;2.20;;;1.50;;
10825;SDS011;5466;55.898;14.094;2023-12-22T06:38:51;3.03;;;2.03;;
10825;SDS011;5466;55.898;14.094;2023-12-22T06:40:53;7.13;;;2.43;;
10825;SDS011;5466;55.898;14.094;2023-12-22T06:42:55;1.93;;;1.67;;
10825;SDS011;5466;55.898;14.094;2023-12-22T06:44:55;3.67;;;2.10;;
10825;SDS011;5466;55.898;14.094;2023-12-22T06:46:56;1.87;;;1.73;;
10825;SDS011;5466;55.898;14.094;2023-12-22T06:48:57;1.70;;;1.53;;
10825;SDS011;5466;55.898;14.094;2023-12-22T06:50:58;2.83;;;2.07;;
10825;SDS011;5466;55.898;14.094;2023-12-22T06:52:58;1.63;;;1.53;;
10825;SDS011;5466;55.898;14.094;2023-12-22T06:54:59;2.90;;;2.00;;
10825;SDS011;5466;55.898;14.094;2023-12-22T06:56:59;2.40;;;1.60;;
10825;SDS011;5466;55.898;14.094;2023-12-22T06:59:00;3.10;;;1.73;;
10825;SDS011;5466;55.898;14.094;2023-12-22T07:01:01;2.63;;;1.80;;
10825;SDS011;5466;55.898;14.094;2023-12-22T07:03:02;2.83;;;1.53;;
10825;SDS011;5466;55.898;14.094;2023-12-22T07:05:29;2.07;;;1.80;;
10825;SDS011;5466;55.898;14.094;2023-12-22T07:07:25;1.97;;;1.60;;
10825;SDS011;5466;55.898;14.094;2023-12-22T07:11:28;5.43;;;1.47;;
10825;SDS011;5466;55.898;14.094;2023-12-22T07:13:29;1.87;;;1.63;;
10825;SDS011;5466;55.898;14.094;2023-12-22T07:15:29;2.40;;;1.57;;
10825;SDS011;5466;55.898;14.094;2023-12-22T07:17:30;2.20;;;1.87;;
10825;SDS011;5466;55.898;14.094;2023-12-22T07:19:30;1.57;;;1.47;;
10825;SDS011;5466;55.898;14.094;2023-12-22T07:21:31;1.50;;;1.40;;
10825;SDS011;5466;55.898;14.094;2023-12-22T07:23:32;1.70;;;1.60;;
10825;SDS011;5466;55.898;14.094;2023-12-22T07:25:36;3.13;;;1.83;;
10825;SDS011;5466;55.898;14.094;2023-12-22T07:27:38;1.77;;;1.63;;
10825;SDS011;5466;55.898;14.094;2023-12-22T07:29:38;1.50;;;1.40;;
10825;SDS011;5466;55.898;14.094;2023-12-22T07:31:39;1.87;;;1.40;;
10825;SDS011;5466;55.898;14.094;2023-12-22T07:33:40;2.83;;;2.00;;
10825;SDS011;5466;55.898;14.094;2023-12-22T07:35:40;1.70;;;1.60;;
10825;SDS011;5466;55.898;14.094;2023-12-22T07:37:41;2.00;;;1.80;;
10825;SDS011;5466;55.898;14.094;2023-12-22T07:39:41;1.50;;;1.40;;
10825;SDS011;5466;55.898;14.094;2023-12-22T07:41:45;1.83;;;1.70;;
10825;SDS011;5466;55.898;14.094;2023-12-22T07:43:45;2.97;;;1.67;;
10825;SDS011;5466;55.898;14.094;2023-12-22T07:45:46;2.37;;;1.70;;
10825;SDS011;5466;55.898;14.094;2023-12-22T07:47:47;3.87;;;1.77;;
10825;SDS011;5466;55.898;14.094;2023-12-22T07:49:48;1.87;;;1.77;;
10825;SDS011;5466;55.898;14.094;2023-12-22T07:51:50;3.13;;;1.60;;
10825;SDS011;5466;55.898;14.094;2023-12-22T07:53:52;1.93;;;1.53;;
10825;SDS011;5466;55.898;14.094;2023-12-22T07:55:53;1.50;;;1.40;;
10825;SDS011;5466;55.898;14.094;2023-12-22T07:57:53;1.57;;;1.33;;
10825;SDS011;5466;55.898;14.094;2023-12-22T07:59:54;1.80;;;1.70;;
10825;SDS011;5466;55.898;14.094;2023-12-22T08:01:54;2.10;;;1.60;;
10825;SDS011;5466;55.898;14.094;2023-12-22T08:03:55;1.60;;;1.50;;
10825;SDS011;5466;55.898;14.094;2023-12-22T08:05:55;1.90;;;1.67;;
10825;SDS011;5466;55.898;14.094;2023-12-22T08:07:56;2.30;;;1.70;;
10825;SDS011;5466;55.898;14.094;2023-12-22T08:09:57;1.83;;;1.50;;
10825;SDS011;5466;55.898;14.094;2023-12-22T08:11:57;6.87;;;1.60;;
10825;SDS011;5466;55.898;14.094;2023-12-22T08:13:58;1.60;;;1.50;;
10825;SDS011;5466;55.898;14.094;2023-12-22T08:15:58;1.70;;;1.60;;
10825;SDS011;5466;55.898;14.094;2023-12-22T08:17:59;1.50;;;1.40;;
10825;SDS011;5466;55.898;14.094;2023-12-22T08:20:00;1.97;;;1.70;;
10825;SDS011;5466;55.898;14.094;2023-12-22T08:22:00;1.50;;;1.40;;
10825;SDS011;5466;55.898;14.094;2023-12-22T08:24:01;2.03;;;1.83;;
10825;SDS011;5466;55.898;14.094;2023-12-22T08:26:02;4.13;;;2.20;;
10825;SDS011;5466;55.898;14.094;2023-12-22T08:28:03;2.23;;;1.90;;
10825;SDS011;5466;55.898;14.094;2023-12-22T08:30:04;1.70;;;1.60;;
10825;SDS011;5466;55.898;14.094;2023-12-22T08:32:05;2.50;;;1.60;;
10825;SDS011;5466;55.898;14.094;2023-12-22T08:34:06;1.93;;;1.57;;
10825;SDS011;5466;55.898;14.094;2023-12-22T08:36:06;1.77;;;1.60;;
10825;SDS011;5466;55.898;14.094;2023-12-22T08:38:07;3.73;;;1.50;;
10825;SDS011;5466;55.898;14.094;2023-12-22T08:40:08;1.70;;;1.60;;
10825;SDS011;5466;55.898;14.094;2023-12-22T08:42:09;2.00;;;1.60;;
10825;SDS011;5466;55.898;14.094;2023-12-22T08:44:09;1.30;;;1.20;;
10825;SDS011;5466;55.898;14.094;2023-12-22T08:46:10;1.87;;;1.60;;
10825;SDS011;5466;55.898;14.094;2023-12-22T08:48:12;1.50;;;1.40;;
10825;SDS011;5466;55.898;14.094;2023-12-22T08:50:12;1.50;;;1.40;;
10825;SDS011;5466;55.898;14.094;2023-12-22T08:52:13;1.53;;;1.43;;
10825;SDS011;5466;55.898;14.094;2023-12-22T08:54:14;2.63;;;1.73;;
10825;SDS011;5466;55.898;14.094;2023-12-22T08:56:15;2.07;;;1.80;;
10825;SDS011;5466;55.898;14.094;2023-12-22T08:58:17;1.73;;;1.50;;
10825;SDS011;5466;55.898;14.094;2023-12-22T09:00:18;2.13;;;1.70;;
10825;SDS011;5466;55.898;14.094;2023-12-22T09:02:18;2.30;;;2.10;;
10825;SDS011;5466;55.898;14.094;2023-12-22T09:04:19;2.10;;;1.90;;
10825;SDS011;5466;55.898;14.094;2023-12-22T09:06:22;2.80;;;2.17;;
10825;SDS011;5466;55.898;14.094;2023-12-22T09:08:24;1.93;;;1.83;;
10825;SDS011;5466;55.898;14.094;2023-12-22T09:10:26;2.90;;;1.70;;
10825;SDS011;5466;55.898;14.094;2023-12-22T09:12:27;2.63;;;1.87;;
10825;SDS011;5466;55.898;14.094;2023-12-22T09:14:27;3.23;;;1.80;;
10825;SDS011;5466;55.898;14.094;2023-12-22T09:16:29;2.07;;;1.87;;
10825;SDS011;5466;55.898;14.094;2023-12-22T09:18:29;2.47;;;2.07;;
10825;SDS011;5466;55.898;14.094;2023-12-22T09:20:30;1.90;;;1.80;;
10825;SDS011;5466;55.898;14.094;2023-12-22T09:22:30;2.70;;;1.90;;
10825;SDS011;5466;55.898;14.094;2023-12-22T09:24:31;1.83;;;1.73;;
10825;SDS011;5466;55.898;14.094;2023-12-22T09:26:32;2.23;;;2.00;;
10825;SDS011;5466;55.898;14.094;2023-12-22T09:28:33;2.03;;;1.70;;
10825;SDS011;5466;55.898;14.094;2023-12-22T09:30:33;2.57;;;1.87;;
10825;SDS011;5466;55.898;14.094;2023-12-22T09:32:34;1.53;;;1.43;;
10825;SDS011;5466;55.898;14.094;2023-12-22T09:34:35;2.73;;;1.90;;
10825;SDS011;5466;55.898;14.094;2023-12-22T09:36:35;2.10;;;1.90;;
10825;SDS011;5466;55.898;14.094;2023-12-22T09:38:36;2.97;;;1.87;;
10825;SDS011;5466;55.898;14.094;2023-12-22T09:40:36;2.00;;;1.80;;
10825;SDS011;5466;55.898;14.094;2023-12-22T09:42:40;1.93;;;1.73;;
10825;SDS011;5466;55.898;14.094;2023-12-22T09:44:42;2.80;;;1.90;;
10825;SDS011;5466;55.898;14.094;2023-12-22T09:46:43;3.23;;;2.10;;
10825;SDS011;5466;55.898;14.094;2023-12-22T09:48:44;1.90;;;1.80;;
10825;SDS011;5466;55.898;14.094;2023-12-22T09:50:46;2.97;;;2.10;;
10825;SDS011;5466;55.898;14.094;2023-12-22T09:52:47;2.87;;;2.00;;
10825;SDS011;5466;55.898;14.094;2023-12-22T09:54:47;3.27;;;2.40;;
10825;SDS011;5466;55.898;14.094;2023-12-22T09:56:49;2.90;;;2.40;;
10825;SDS011;5466;55.898;14.094;2023-12-22T09:58:51;2.50;;;2.17;;
10825;SDS011;5466;55.898;14.094;2023-12-22T10:00:53;3.17;;;1.90;;
10825;SDS011;5466;55.898;14.094;2023-12-22T10:02:56;3.00;;;1.90;;
10825;SDS011;5466;55.898;14.094;2023-12-22T10:04:57;2.10;;;2.00;;
10825;SDS011;5466;55.898;14.094;2023-12-22T10:06:58;3.70;;;2.33;;
10825;SDS011;5466;55.898;14.094;2023-12-22T10:09:01;2.97;;;2.10;;
10825;SDS011;5466;55.898;14.094;2023-12-22T10:11:05;3.10;;;2.20;;
10825;SDS011;5466;55.898;14.094;2023-12-22T10:13:06;3.87;;;2.40;;
10825;SDS011;5466;55.898;14.094;2023-12-22T10:15:09;2.67;;;2.00;;
10825;SDS011;5466;55.898;14.094;2023-12-22T10:17:12;2.77;;;2.57;;
10825;SDS011;5466;55.898;14.094;2023-12-22T10:19:14;3.03;;;2.17;;
10825;SDS011;5466;55.898;14.094;2023-12-22T10:21:15;2.63;;;2.27;;
10825;SDS011;5466;55.898;14.094;2023-12-22T10:23:16;3.60;;;2.30;;
10825;SDS011;5466;55.898;14.094;2023-12-22T10:25:20;2.67;;;2.40;;
10825;SDS011;5466;55.898;14.094;2023-12-22T10:27:27;4.50;;;2.57;;
10825;SDS011;5466;55.898;14.094;2023-12-22T10:29:29;3.27;;;2.20;;
10825;SDS011;5466;55.898;14.094;2023-12-22T10:31:38;2.80;;;2.13;;
10825;SDS011;5466;55.898;14.094;2023-12-22T10:33:40;2.03;;;1.83;;
10825;SDS011;5466;55.898;14.094;2023-12-22T10:35:43;3.77;;;1.97;;
10825;SDS011;5466;55.898;14.094;2023-12-22T10:37:45;2.93;;;2.30;;
10825;SDS011;5466;55.898;14.094;2023-12-22T10:39:47;4.10;;;2.90;;
10825;SDS011;5466;55.898;14.094;2023-12-22T10:41:49;2.40;;;2.20;;
10825;SDS011;5466;55.898;14.094;2023-12-22T10:43:50;2.40;;;2.20;;
10825;SDS011;5466;55.898;14.094;2023-12-22T10:45:54;2.90;;;2.60;;
10825;SDS011;5466;55.898;14.094;2023-12-22T10:47:55;2.13;;;1.93;;
10825;SDS011;5466;55.898;14.094;2023-12-22T10:49:55;4.57;;;2.83;;
10825;SDS011;5466;55.898;14.094;2023-12-22T10:51:56;2.27;;;2.07;;
10825;SDS011;5466;55.898;14.094;2023-12-22T10:53:57;2.20;;;2.00;;
10825;SDS011;5466;55.898;14.094;2023-12-22T10:55:57;2.93;;;2.43;;
10825;SDS011;5466;55.898;14.094;2023-12-22T10:58:01;2.33;;;2.13;;
10825;SDS011;5466;55.898;14.094;2023-12-22T11:00:03;8.83;;;2.30;;
10825;SDS011;5466;55.898;14.094;2023-12-22T11:02:07;2.20;;;1.97;;
10825;SDS011;5466;55.898;14.094;2023-12-22T11:04:12;3.57;;;2.10;;
10825;SDS011;5466;55.898;14.094;2023-12-22T11:06:14;4.10;;;2.47;;
10825;SDS011;5466;55.898;14.094;2023-12-22T11:08:16;4.70;;;2.33;;
10825;SDS011;5466;55.898;14.094;2023-12-22T11:10:20;2.30;;;2.10;;
10825;SDS011;5466;55.898;14.094;2023-12-22T11:12:21;2.43;;;2.20;;
10825;SDS011;5466;55.898;14.094;2023-12-22T11:14:26;2.07;;;1.83;;
10825;SDS011;5466;55.898;14.094;2023-12-22T11:16:29;2.60;;;2.03;;
10825;SDS011;5466;55.898;14.094;2023-12-22T11:18:30;4.50;;;2.50;;
10825;SDS011;5466;55.898;14.094;2023-12-22T11:20:32;2.20;;;1.80;;
10825;SDS011;5466;55.898;14.094;2023-12-22T11:22:36;2.37;;;2.17;;
10825;SDS011;5466;55.898;14.094;2023-12-22T11:24:36;3.20;;;2.30;;
10825;SDS011;5466;55.898;14.094;2023-12-22T11:26:41;3.63;;;2.20;;
10825;SDS011;5466;55.898;14.094;2023-12-22T11:28:42;3.63;;;2.40;;
10825;SDS011;5466;55.898;14.094;2023-12-22T11:30:45;2.80;;;2.37;;
10825;SDS011;5466;55.898;14.094;2023-12-22T11:32:47;5.07;;;2.60;;
10825;SDS011;5466;55.898;14.094;2023-12-22T11:34:49;3.47;;;2.23;;
10825;SDS011;5466;55.898;14.094;2023-12-22T11:36:52;4.00;;;2.50;;
10825;SDS011;5466;55.898;14.094;2023-12-22T11:38:55;3.93;;;2.50;;
10825;SDS011;5466;55.898;14.094;2023-12-22T11:40:55;3.63;;;2.37;;
10825;SDS011;5466;55.898;14.094;2023-12-22T11:42:56;3.70;;;2.27;;
10825;SDS011;5466;55.898;14.094;2023-12-22T11:44:58;5.03;;;2.77;;
10825;SDS011;5466;55.898;14.094;2023-12-22T11:47:08;3.80;;;2.70;;
10825;SDS011;5466;55.898;14.094;2023-12-22T11:49:10;3.83;;;2.53;;
10825;SDS011;5466;55.898;14.094;2023-12-22T11:51:13;2.93;;;2.30;;
10825;SDS011;5466;55.898;14.094;2023-12-22T11:53:19;3.67;;;2.30;;
10825;SDS011;5466;55.898;14.094;2023-12-22T11:57:59;5.43;;;2.73;;
10825;SDS011;5466;55.898;14.094;2023-12-22T12:02:38;3.53;;;2.77;;
10825;SDS011;5466;55.898;14.094;2023-12-22T12:04:40;4.53;;;2.70;;
10825;SDS011;5466;55.898;14.094;2023-12-22T12:06:40;5.53;;;3.10;;
10825;SDS011;5466;55.898;14.094;2023-12-22T12:08:41;4.20;;;2.60;;
10825;SDS011;5466;55.898;14.094;2023-12-22T12:12:57;6.90;;;3.40;;
10825;SDS011;5466;55.898;14.094;2023-12-22T12:15:08;4.63;;;3.03;;
10825;SDS011;5466;55.898;14.094;2023-12-22T12:19:41;4.20;;;2.70;;
10825;SDS011;5466;55.898;14.094;2023-12-22T12:21:45;4.13;;;2.87;;
10825;SDS011;5466;55.898;14.094;2023-12-22T12:23:46;4.83;;;3.17;;